aviador You're here:

PAEN Decoded Metar

KENAI in AK, USA
Report Time2017-11-23 19:53:00
UTC Time2017-11-23 20:13:23
Flight Rules vfr VFR
Wind040° at 05 kt
W.Decomp.*RWY 01: 4.9 kt HW 1.0 kt RCW
W.Rank040° ranks 4
Current wind is below 040° avg. (7.6)
Visibility9999 m
Phenomena:N/A
Clouds:Overcast 120 Hf
Expected CloudBase > 400 ft AGL from Temp-Dew spread
Ceiling12,000 ft
Temp-12°C (ISA -27)
Dew Point-13°C (92% RH)
AAT-17.1°C
QNH992 hPa
Density Alt-2,520 ft
Elevation89 ft
Report Wrong Elevation
Raw Report
PAEN 231953Z 04005KT 10SM OVC120 M12/M13 A2929=

Extra information for PAEN:More info

Metar Taf Metar & Taf Last 4 Metars F.Rules Stats Wind Profile Meteogram Temp Stats Airport Information Weather charts Add Link Nearby VenuesMetar ALERT Operation Metar Decoded Social comments

AIRNAV info for PAEN